Time;durP1;ratioP1;P1;durP2;ratioP2;P2;SDS_P1;SDS_P2;PMS_P1;PMS_P2;Temp;Humidity;BMP_temperature;BMP_pressure;BME280_temperature;BME280_humidity;BME280_pressure;Samples;Min_cycle;Max_cycle;Signal;HPM_P1;HPM_P2
2022/04/14 00:01:54;;;;;;;12.27;6.22;;;16.90;54.50;;;;;;4979214;28;20057;-46
2022/04/14 00:04:22;;;;;;;12.38;6.45;;;16.90;54.40;;;;;;4976780;28;20053;-43
2022/04/14 00:06:49;;;;;;;11.18;5.60;;;16.90;54.30;;;;;;4980469;28;20051;-43
2022/04/14 00:09:16;;;;;;;11.38;5.85;;;16.90;54.20;;;;;;4980498;28;20065;-45
2022/04/14 00:11:44;;;;;;;13.00;6.60;;;16.90;54.20;;;;;;4978087;28;20058;-43
2022/04/14 00:14:11;;;;;;;11.82;6.10;;;16.90;54.30;;;;;;4981607;28;20057;-43
2022/04/14 00:16:40;;;;;;;9.20;5.95;;;16.90;54.20;;;;;;4980655;28;20065;-43
2022/04/14 00:19:08;;;;;;;15.15;6.13;;;16.90;54.30;;;;;;4978878;28;20058;-43
2022/04/14 00:21:36;;;;;;;14.25;6.07;;;16.90;54.30;;;;;;4979657;28;20505;-44
2022/04/14 00:24:03;;;;;;;9.90;5.80;;;16.90;54.30;;;;;;4980663;28;20050;-43
2022/04/14 00:26:31;;;;;;;12.93;6.47;;;16.90;54.20;;;;;;4978607;28;20058;-43
2022/04/14 00:28:58;;;;;;;12.75;6.10;;;16.80;54.20;;;;;;4981142;28;20057;-43
2022/04/14 00:31:25;;;;;;;11.48;5.55;;;16.80;54.20;;;;;;4978653;28;20054;-45
2022/04/14 00:33:54;;;;;;;11.27;5.35;;;16.90;54.20;;;;;;4981627;28;20050;-43
2022/04/14 00:36:22;;;;;;;9.27;4.88;;;16.80;54.20;;;;;;4978130;28;20517;-43
2022/04/14 00:38:49;;;;;;;6.82;4.50;;;16.80;54.20;;;;;;4981580;28;20054;-43
2022/04/14 00:41:18;;;;;;;7.18;4.55;;;16.80;54.20;;;;;;4977546;28;20058;-47
2022/04/14 00:43:51;;;;;;;8.32;4.10;;;16.80;54.10;;;;;;4981559;28;20807;-43
2022/04/14 00:46:18;;;;;;;13.15;4.82;;;16.80;54.10;;;;;;4980252;28;20050;-43
2022/04/14 00:48:46;;;;;;;11.50;4.45;;;16.80;54.10;;;;;;4980385;28;20054;-43
2022/04/14 00:51:15;;;;;;;9.45;4.85;;;16.80;54.00;;;;;;4979249;28;20073;-43
2022/04/14 00:53:44;;;;;;;8.75;4.32;;;16.80;54.10;;;;;;4978702;28;20045;-43
2022/04/14 00:56:12;;;;;;;9.82;5.10;;;16.80;54.00;;;;;;4976766;28;20054;-44
2022/04/14 00:58:40;;;;;;;11.73;4.32;;;16.80;54.00;;;;;;4978859;28;20050;-43
2022/04/14 01:01:08;;;;;;;7.65;3.65;;;16.80;54.10;;;;;;4979327;28;20058;-43
2022/04/14 01:03:37;;;;;;;10.02;4.55;;;16.80;54.00;;;;;;4978567;28;20395;-43
2022/04/14 01:06:05;;;;;;;9.25;4.45;;;16.80;54.10;;;;;;4980222;28;20046;-43
2022/04/14 01:08:34;;;;;;;8.15;4.28;;;16.80;54.10;;;;;;4979696;28;20414;-43
2022/04/14 01:11:02;;;;;;;7.97;4.18;;;16.80;54.10;;;;;;4976857;28;20077;-43
2022/04/14 01:13:30;;;;;;;12.45;4.53;;;16.80;54.10;;;;;;4977223;28;20422;-43
2022/04/14 01:15:59;;;;;;;8.95;4.35;;;16.80;54.20;;;;;;4979022;28;20069;-43
2022/04/14 01:18:27;;;;;;;5.18;3.30;;;16.80;54.10;;;;;;4981688;28;20058;-43
2022/04/14 01:20:54;;;;;;;8.05;3.22;;;16.80;54.20;;;;;;4978798;28;20062;-48
2022/04/14 01:23:40;;;;;;;9.48;3.40;;;16.80;54.10;;;;;;4979317;28;20054;-44
2022/04/14 01:26:10;;;;;;;6.57;2.50;;;16.70;54.10;;;;;;4978643;28;20050;-43
2022/04/14 01:28:38;;;;;;;4.43;2.78;;;16.70;54.00;;;;;;4979449;28;20077;-47
2022/04/14 01:31:06;;;;;;;8.90;3.05;;;16.70;54.00;;;;;;4979932;28;20062;-43
2022/04/14 01:33:33;;;;;;;9.20;3.17;;;16.70;53.90;;;;;;4977212;28;20054;-43
2022/04/14 01:36:01;;;;;;;5.88;3.00;;;16.70;53.90;;;;;;4979621;28;20054;-44
2022/04/14 01:38:28;;;;;;;6.72;3.40;;;16.70;53.90;;;;;;4975703;28;20047;-43
2022/04/14 01:40:57;;;;;;;10.23;4.18;;;16.70;53.90;;;;;;4978748;28;20069;-44
2022/04/14 01:43:25;;;;;;;6.70;3.50;;;16.70;53.90;;;;;;4978597;28;20057;-44
2022/04/14 01:45:52;;;;;;;8.10;3.70;;;16.70;53.90;;;;;;4981065;28;20046;-43
2022/04/14 01:48:20;;;;;;;8.75;3.55;;;16.70;54.00;;;;;;4979723;28;20078;-43
2022/04/14 01:50:47;;;;;;;6.78;3.83;;;16.70;54.00;;;;;;4978758;28;20054;-43
2022/04/14 01:53:15;;;;;;;7.35;3.55;;;16.70;54.00;;;;;;4975886;28;20057;-43
2022/04/14 01:55:42;;;;;;;9.52;4.30;;;16.70;54.00;;;;;;4977240;28;20065;-43
2022/04/14 01:58:11;;;;;;;9.23;4.05;;;16.80;54.00;;;;;;4978989;28;20061;-45
2022/04/14 02:00:39;;;;;;;9.13;5.35;;;16.70;54.00;;;;;;4979229;28;20349;-45
2022/04/14 02:03:06;;;;;;;12.10;6.63;;;16.80;54.00;;;;;;4977100;28;20069;-43
2022/04/14 02:05:34;;;;;;;10.88;6.25;;;16.80;54.00;;;;;;4978274;28;20046;-43
2022/04/14 02:08:02;;;;;;;12.90;6.43;;;16.80;54.00;;;;;;4980425;28;20058;-43
2022/04/14 02:10:29;;;;;;;13.68;7.50;;;16.80;54.00;;;;;;4979007;28;20062;-43
2022/04/14 02:12:58;;;;;;;18.23;7.90;;;16.80;53.90;;;;;;4977756;28;20057;-44
2022/04/14 02:15:27;;;;;;;13.30;7.18;;;16.80;53.90;;;;;;4978296;28;20055;-45
2022/04/14 02:17:54;;;;;;;14.20;8.18;;;16.80;53.90;;;;;;4979968;28;20060;-45
2022/04/14 02:20:22;;;;;;;15.80;8.88;;;16.80;53.90;;;;;;4977973;28;20061;-43
2022/04/14 02:22:49;;;;;;;13.35;7.80;;;16.80;54.00;;;;;;4975649;28;20085;-43
2022/04/14 02:25:17;;;;;;;15.45;8.73;;;16.80;54.00;;;;;;4977473;28;20797;-43
2022/04/14 02:27:44;;;;;;;16.92;8.52;;;16.80;54.10;;;;;;4982530;28;20069;-44
2022/04/14 02:30:12;;;;;;;14.30;9.10;;;16.70;54.00;;;;;;4983544;28;20057;-44
2022/04/14 02:32:41;;;;;;;17.98;8.27;;;16.70;54.00;;;;;;4982332;28;20069;-43
2022/04/14 02:35:10;;;;;;;19.05;9.38;;;16.70;54.10;;;;;;4981458;28;20054;-44
2022/04/14 02:37:37;;;;;;;18.92;10.73;;;16.70;54.10;;;;;;4983269;28;20505;-43
2022/04/14 02:40:06;;;;;;;17.80;10.10;;;16.70;54.20;;;;;;4983474;28;20380;-43
2022/04/14 02:42:34;;;;;;;20.10;11.18;;;16.70;54.30;;;;;;4979871;28;20054;-47
2022/04/14 02:45:01;;;;;;;18.20;11.18;;;16.70;54.40;;;;;;4981694;28;20065;-44
2022/04/14 02:47:29;;;;;;;21.95;11.57;;;16.70;54.40;;;;;;4984029;28;20054;-43
2022/04/14 02:49:59;;;;;;;25.70;13.93;;;16.60;54.40;;;;;;4980674;28;20061;-43
2022/04/14 02:52:26;;;;;;;24.85;13.93;;;16.60;54.60;;;;;;4980563;28;20054;-43
2022/04/14 02:54:54;;;;;;;27.30;15.68;;;16.60;54.80;;;;;;4980601;28;20054;-46
2022/04/14 02:57:22;;;;;;;27.23;15.07;;;16.60;54.90;;;;;;4977693;28;20494;-43
2022/04/14 02:59:49;;;;;;;29.23;17.58;;;16.50;55.00;;;;;;4982006;28;20062;-45
2022/04/14 03:02:17;;;;;;;41.80;18.25;;;16.50;55.10;;;;;;4979549;28;20058;-45
2022/04/14 03:04:44;;;;;;;29.40;17.38;;;16.50;55.30;;;;;;4981251;28;20050;-45
2022/04/14 03:07:14;;;;;;;30.42;16.95;;;16.50;55.30;;;;;;4980718;28;20054;-43
2022/04/14 03:09:41;;;;;;;46.10;20.65;;;16.40;55.40;;;;;;4982783;28;20061;-45
2022/04/14 03:12:10;;;;;;;33.97;21.30;;;16.40;55.60;;;;;;4979834;28;20395;-43
2022/04/14 03:14:37;;;;;;;32.28;19.13;;;16.40;55.80;;;;;;4984039;28;20508;-43
2022/04/14 03:17:05;;;;;;;34.85;22.42;;;16.40;55.80;;;;;;4979388;28;20058;-43
2022/04/14 03:19:32;;;;;;;39.75;22.48;;;16.40;56.00;;;;;;4980914;28;20056;-45
2022/04/14 03:22:00;;;;;;;44.50;24.20;;;16.30;56.20;;;;;;4980874;28;20047;-44
2022/04/14 03:24:29;;;;;;;39.33;24.13;;;16.30;56.50;;;;;;4980129;28;20573;-44
2022/04/14 03:26:56;;;;;;;46.00;25.17;;;16.30;56.70;;;;;;4980998;28;20058;-44
2022/04/14 03:29:24;;;;;;;38.85;22.75;;;16.30;56.70;;;;;;4983059;28;20061;-44
2022/04/14 03:31:51;;;;;;;49.15;25.80;;;16.20;56.90;;;;;;4979607;28;20050;-43
2022/04/14 03:34:19;;;;;;;37.08;22.98;;;16.20;57.10;;;;;;4979618;28;20054;-43
2022/04/14 03:36:46;;;;;;;42.00;25.30;;;16.20;57.10;;;;;;4979729;28;20050;-44
2022/04/14 03:39:14;;;;;;;42.50;23.42;;;16.20;57.20;;;;;;4981573;28;20066;-43
2022/04/14 03:41:42;;;;;;;41.80;24.08;;;16.20;57.30;;;;;;4975534;28;20134;-43
2022/04/14 03:44:10;;;;;;;47.20;27.13;;;16.20;57.40;;;;;;4977207;28;20631;-43
2022/04/14 03:46:37;;;;;;;45.90;25.45;;;16.20;57.60;;;;;;4977980;28;20050;-44
2022/04/14 03:49:05;;;;;;;41.05;24.17;;;16.20;57.70;;;;;;4977523;28;20054;-43
2022/04/14 03:51:34;;;;;;;41.05;25.95;;;16.10;57.70;;;;;;4977151;28;20510;-43
2022/04/14 03:54:01;;;;;;;39.10;23.15;;;16.10;57.80;;;;;;4975334;28;20053;-43
2022/04/14 03:56:29;;;;;;;43.50;25.02;;;16.10;57.80;;;;;;4973843;28;20680;-44
2022/04/14 03:59:00;;;;;;;45.30;24.70;;;16.10;57.90;;;;;;4979412;28;20046;-43
2022/04/14 04:01:27;;;;;;;45.25;25.40;;;16.10;58.00;;;;;;4979628;28;20054;-43
2022/04/14 04:03:55;;;;;;;37.30;23.35;;;16.10;57.90;;;;;;4983267;28;20648;-43
2022/04/14 04:06:22;;;;;;;42.13;26.23;;;16.10;58.00;;;;;;4983206;28;20054;-43
2022/04/14 04:08:50;;;;;;;46.20;26.00;;;16.10;58.20;;;;;;4982682;28;20057;-43
2022/04/14 04:11:18;;;;;;;39.63;23.02;;;16.10;58.10;;;;;;4980170;28;20054;-44
2022/04/14 04:13:45;;;;;;;44.65;25.40;;;16.00;58.10;;;;;;4981484;28;20062;-43
2022/04/14 04:16:14;;;;;;;42.25;25.15;;;16.00;58.10;;;;;;4977714;28;20059;-43
2022/04/14 04:18:42;;;;;;;46.60;26.23;;;16.10;58.30;;;;;;4975411;28;20057;-43
2022/04/14 04:21:09;;;;;;;41.15;25.00;;;16.10;58.20;;;;;;4978029;28;20387;-44
2022/04/14 04:23:37;;;;;;;39.60;23.63;;;16.00;58.30;;;;;;4975359;28;20070;-43
2022/04/14 04:26:04;;;;;;;41.42;25.17;;;16.00;58.20;;;;;;4975919;28;20050;-43
2022/04/14 04:28:32;;;;;;;47.92;27.10;;;16.00;58.30;;;;;;4976349;28;20494;-43
2022/04/14 04:31:00;;;;;;;44.58;25.27;;;16.00;58.40;;;;;;4981216;28;20066;-45
2022/04/14 04:33:28;;;;;;;43.00;25.58;;;16.00;58.40;;;;;;4973297;28;20065;-43
2022/04/14 04:35:56;;;;;;;40.17;25.02;;;16.00;58.60;;;;;;4980358;28;20062;-43
2022/04/14 04:38:23;;;;;;;47.30;27.52;;;16.00;58.60;;;;;;4978565;28;20501;-43
2022/04/14 04:40:51;;;;;;;43.17;26.88;;;15.90;58.60;;;;;;4975368;28;20065;-43
2022/04/14 04:43:18;;;;;;;45.28;26.90;;;15.90;58.60;;;;;;4975883;28;20770;-43
2022/04/14 04:45:46;;;;;;;45.13;26.92;;;15.90;59.20;;;;;;4977633;28;20061;-43
2022/04/14 04:48:13;;;;;;;38.17;24.30;;;16.00;58.80;;;;;;4978184;28;20061;-43
2022/04/14 04:50:42;;;;;;;44.22;26.05;;;15.90;58.80;;;;;;4977308;28;20051;-43
2022/04/14 04:53:10;;;;;;;47.65;28.55;;;15.90;58.90;;;;;;4971804;28;20050;-43
2022/04/14 04:55:37;;;;;;;51.95;30.92;;;15.90;58.90;;;;;;4976958;28;20057;-43
2022/04/14 04:58:05;;;;;;;52.35;30.27;;;15.90;59.20;;;;;;4977017;28;20061;-43
2022/04/14 05:00:33;;;;;;;58.63;31.15;;;15.80;59.40;;;;;;4974765;28;20072;-43
2022/04/14 05:03:00;;;;;;;49.65;29.98;;;15.80;59.50;;;;;;4975362;28;20061;-43
2022/04/14 05:05:28;;;;;;;52.60;30.10;;;15.70;59.60;;;;;;4977864;28;20057;-43
2022/04/14 05:07:57;;;;;;;63.50;30.02;;;15.70;59.80;;;;;;4977866;28;20061;-44
2022/04/14 05:10:24;;;;;;;54.05;31.35;;;15.70;59.90;;;;;;4977277;28;20494;-45
2022/04/14 05:12:51;;;;;;;45.85;27.35;;;15.60;60.00;;;;;;4974681;28;20059;-44
2022/04/14 05:15:21;;;;;;;51.55;31.48;;;15.60;60.20;;;;;;4976697;28;20078;-45
2022/04/14 05:17:48;;;;;;;53.13;29.85;;;15.60;60.50;;;;;;4979890;28;20509;-44
2022/04/14 05:20:16;;;;;;;51.80;31.00;;;15.50;60.60;;;;;;4978641;28;20050;-46
2022/04/14 05:22:43;;;;;;;56.17;33.50;;;15.50;61.00;;;;;;4976776;28;20054;-46
2022/04/14 05:25:12;;;;;;;58.15;32.58;;;15.50;61.30;;;;;;4975450;28;20069;-43
2022/04/14 05:27:42;;;;;;;53.30;31.60;;;15.50;61.30;;;;;;4973562;28;20532;-43
2022/04/14 05:30:10;;;;;;;53.53;32.25;;;15.50;61.50;;;;;;4976975;28;20747;-43
2022/04/14 05:32:39;;;;;;;54.60;33.00;;;15.50;61.50;;;;;;4976923;28;20050;-43
2022/04/14 05:35:08;;;;;;;52.35;30.50;;;15.50;61.80;;;;;;4977730;28;20522;-43
2022/04/14 05:37:36;;;;;;;56.88;32.03;;;15.50;62.00;;;;;;4977814;28;20058;-43
2022/04/14 05:40:04;;;;;;;50.08;30.08;;;15.40;62.10;;;;;;4979449;28;20069;-43
2022/04/14 05:42:33;;;;;;;50.42;29.40;;;15.40;62.20;;;;;;4979532;28;20062;-43
2022/04/14 05:45:01;;;;;;;54.40;32.08;;;15.40;62.30;;;;;;4978264;28;20057;-43
2022/04/14 05:47:28;;;;;;;53.97;31.92;;;15.50;62.60;;;;;;4982201;28;20062;-46
2022/04/14 05:49:56;;;;;;;50.63;32.17;;;15.40;62.80;;;;;;4981613;28;20058;-44
2022/04/14 05:52:24;;;;;;;59.28;34.13;;;15.50;62.90;;;;;;4981736;28;20391;-43
2022/04/14 05:54:51;;;;;;;55.88;31.92;;;15.50;63.00;;;;;;4980859;28;20542;-44
2022/04/14 05:57:22;;;;;;;53.22;32.97;;;15.50;63.00;;;;;;4975964;28;20058;-43
2022/04/14 05:59:51;;;;;;;50.45;30.88;;;15.50;63.00;;;;;;4975327;28;20396;-43
2022/04/14 06:02:18;;;;;;;49.08;29.50;;;15.50;63.00;;;;;;4978392;28;20054;-43
2022/04/14 06:04:46;;;;;;;48.95;31.85;;;15.50;62.90;;;;;;4977601;28;20671;-44
2022/04/14 06:07:13;;;;;;;47.00;27.20;;;15.60;62.90;;;;;;4977515;28;20050;-45
2022/04/14 06:09:41;;;;;;;46.13;28.88;;;15.60;62.80;;;;;;4982229;28;20054;-43
2022/04/14 06:12:09;;;;;;;48.22;29.63;;;15.60;62.70;;;;;;4979314;28;20422;-43
2022/04/14 06:14:37;;;;;;;47.78;29.00;;;15.70;62.90;;;;;;4980343;28;20112;-45
2022/04/14 06:17:06;;;;;;;52.88;31.52;;;15.70;62.80;;;;;;4979931;28;20058;-44
2022/04/14 06:19:34;;;;;;;52.65;32.03;;;15.70;62.90;;;;;;4979228;28;20054;-43
2022/04/14 06:22:01;;;;;;;51.88;31.65;;;15.80;62.90;;;;;;4981789;28;20050;-44
2022/04/14 06:24:29;;;;;;;48.90;29.55;;;15.80;62.90;;;;;;4981217;28;20050;-44
2022/04/14 06:26:56;;;;;;;46.88;27.63;;;15.80;62.80;;;;;;4979618;28;20046;-43
2022/04/14 06:29:24;;;;;;;55.83;31.10;;;15.80;62.80;;;;;;4983453;28;20055;-44
2022/04/14 06:31:51;;;;;;;54.58;32.58;;;15.80;63.00;;;;;;4978599;28;20062;-43
2022/04/14 06:34:20;;;;;;;56.85;33.08;;;15.80;63.20;;;;;;4979421;28;20051;-45
2022/04/14 06:36:47;;;;;;;54.35;33.15;;;15.80;63.30;;;;;;4979923;28;20509;-46
2022/04/14 06:39:15;;;;;;;47.45;28.70;;;15.80;63.30;;;;;;4979453;28;20070;-43
2022/04/14 06:41:43;;;;;;;50.15;29.58;;;15.80;63.20;;;;;;4975478;28;20070;-43
2022/04/14 06:44:10;;;;;;;51.53;30.05;;;15.80;63.20;;;;;;4979653;28;20057;-43
2022/04/14 06:46:39;;;;;;;55.05;33.45;;;15.80;63.30;;;;;;4979728;28;20528;-44
2022/04/14 06:49:06;;;;;;;58.53;32.60;;;15.80;63.60;;;;;;4977747;28;20058;-43
2022/04/14 06:51:35;;;;;;;56.50;33.20;;;15.80;63.80;;;;;;4979917;28;20426;-44
2022/04/14 06:54:03;;;;;;;53.92;31.63;;;15.90;64.20;;;;;;4976565;28;20058;-43
2022/04/14 06:56:30;;;;;;;51.00;29.85;;;15.80;64.10;;;;;;4980088;28;20051;-43
2022/04/14 06:58:58;;;;;;;51.83;31.52;;;15.80;64.00;;;;;;4975356;28;20065;-43
2022/04/14 07:01:25;;;;;;;53.80;33.22;;;15.80;64.00;;;;;;4977288;28;20050;-47
2022/04/14 07:03:53;;;;;;;66.13;36.17;;;15.80;64.00;;;;;;4979285;28;20432;-43
2022/04/14 07:06:20;;;;;;;54.92;32.97;;;15.90;64.10;;;;;;4980896;28;20054;-43
2022/04/14 07:08:50;;;;;;;57.30;34.20;;;15.80;64.00;;;;;;4976656;28;20061;-46
2022/04/14 07:11:17;;;;;;;56.17;35.10;;;15.80;64.10;;;;;;4977199;28;20058;-46
2022/04/14 07:13:46;;;;;;;53.50;33.03;;;15.90;64.20;;;;;;4978335;28;20100;-43
2022/04/14 07:16:14;;;;;;;49.65;31.75;;;15.90;64.20;;;;;;4981174;28;20062;-43
2022/04/14 07:18:41;;;;;;;56.22;35.35;;;15.90;64.20;;;;;;4976763;28;20057;-47
2022/04/14 07:21:09;;;;;;;52.95;32.85;;;15.90;64.30;;;;;;4980039;28;20073;-46
2022/04/14 07:23:36;;;;;;;55.55;33.53;;;15.90;64.30;;;;;;4973725;28;20553;-43
2022/04/14 07:26:05;;;;;;;47.55;29.67;;;15.90;64.30;;;;;;4978274;28;20386;-44
2022/04/14 07:28:33;;;;;;;54.17;31.15;;;15.90;64.40;;;;;;4976683;28;20050;-44
2022/04/14 07:31:01;;;;;;;56.50;33.08;;;16.00;64.40;;;;;;4978675;28;20054;-43
2022/04/14 07:33:29;;;;;;;50.15;31.30;;;16.00;64.40;;;;;;4975338;28;20069;-44
2022/04/14 07:35:57;;;;;;;64.18;36.60;;;16.00;64.40;;;;;;4980552;28;20054;-43
2022/04/14 07:38:24;;;;;;;56.95;35.60;;;16.00;64.40;;;;;;4976597;28;20061;-45
2022/04/14 07:40:52;;;;;;;59.90;35.42;;;16.00;64.50;;;;;;4975567;28;20054;-44
2022/04/14 07:43:20;;;;;;;67.07;39.90;;;16.00;64.60;;;;;;4978041;28;20054;-43
2022/04/14 07:45:48;;;;;;;69.90;40.13;;;16.10;64.80;;;;;;4979086;28;20705;-43
2022/04/14 07:48:16;;;;;;;77.63;43.38;;;16.10;64.80;;;;;;4981496;28;20058;-43
2022/04/14 07:50:43;;;;;;;79.43;46.38;;;16.10;64.70;;;;;;4980491;28;20061;-43
2022/04/14 07:53:11;;;;;;;76.50;43.95;;;16.10;64.90;;;;;;4974798;28;20500;-43
2022/04/14 07:55:38;;;;;;;77.07;45.47;;;16.10;64.90;;;;;;4978989;28;20057;-43
2022/04/14 07:58:07;;;;;;;91.55;47.55;;;16.10;65.00;;;;;;4978271;28;20528;-43
2022/04/14 08:00:37;;;;;;;81.45;46.58;;;16.10;65.20;;;;;;4978927;28;20057;-43
2022/04/14 08:03:06;;;;;;;82.03;47.55;;;16.00;65.40;;;;;;4981280;28;20058;-43
2022/04/14 08:05:36;;;;;;;78.35;45.10;;;16.00;65.60;;;;;;4982726;28;20062;-44
2022/04/14 08:08:04;;;;;;;83.82;47.50;;;16.00;65.90;;;;;;4980084;28;20062;-43
2022/04/14 08:10:32;;;;;;;86.82;48.05;;;16.00;66.10;;;;;;4980648;28;20062;-47
2022/04/14 08:13:00;;;;;;;80.05;44.60;;;15.90;66.10;;;;;;4981744;28;20058;-43
2022/04/14 08:15:29;;;;;;;76.63;44.15;;;15.90;66.30;;;;;;4982217;28;20054;-43
2022/04/14 08:17:58;;;;;;;81.45;47.25;;;15.90;66.50;;;;;;4981269;28;20062;-45
2022/04/14 08:20:26;;;;;;;81.60;45.40;;;15.90;66.90;;;;;;4975489;28;20073;-43
2022/04/14 08:22:55;;;;;;;82.95;46.78;;;15.90;66.90;;;;;;4975071;28;20061;-48
2022/04/14 08:25:24;;;;;;;84.00;47.67;;;15.90;67.10;;;;;;4976868;28;20494;-44
2022/04/14 08:27:52;;;;;;;82.43;46.03;;;15.90;67.30;;;;;;4977579;28;20498;-43
2022/04/14 08:30:22;;;;;;;76.90;45.60;;;15.90;67.40;;;;;;4963632;28;20063;-45
2022/04/14 08:32:51;;;;;;;74.95;42.55;;;15.90;67.60;;;;;;4975705;28;20142;-43
2022/04/14 08:35:20;;;;;;;81.13;45.78;;;16.00;67.80;;;;;;4971076;28;20058;-43
2022/04/14 08:37:49;;;;;;;84.60;46.15;;;16.00;67.80;;;;;;4980411;28;20070;-43
2022/04/14 08:40:21;;;;;;;83.07;45.38;;;16.00;67.60;;;;;;4976574;28;20062;-43
2022/04/14 08:42:53;;;;;;;76.28;44.90;;;16.00;67.50;;;;;;4973856;28;20555;-43
2022/04/14 08:45:25;;;;;;;76.75;43.47;;;16.00;67.60;;;;;;4974942;28;20058;-43
2022/04/14 08:47:53;;;;;;;77.03;45.47;;;16.00;67.90;;;;;;4976842;28;20046;-44
2022/04/14 08:50:22;;;;;;;76.88;44.03;;;16.10;67.70;;;;;;4961678;28;20069;-43
2022/04/14 08:52:51;;;;;;;82.40;45.55;;;16.10;68.30;;;;;;4973255;28;20057;-43
2022/04/14 08:55:19;;;;;;;75.93;43.05;;;16.20;67.60;;;;;;4973489;28;20058;-43
2022/04/14 08:57:47;;;;;;;75.82;42.63;;;16.10;67.40;;;;;;4978575;28;20042;-44
2022/04/14 09:00:17;;;;;;;72.57;41.05;;;16.20;67.60;;;;;;4976664;28;20170;-43
2022/04/14 09:02:46;;;;;;;70.70;39.65;;;16.20;67.30;;;;;;4975386;28;20372;-43
2022/04/14 09:05:16;;;;;;;74.60;42.67;;;16.20;67.00;;;;;;4979544;28;20065;-43
2022/04/14 09:07:48;;;;;;;75.57;42.60;;;16.20;67.00;;;;;;4981140;28;20057;-43
2022/04/14 09:10:15;;;;;;;70.07;40.70;;;16.30;67.50;;;;;;4980180;28;20054;-44
2022/04/14 09:12:43;;;;;;;70.43;40.10;;;16.30;67.70;;;;;;4980956;28;20065;-43
2022/04/14 09:15:12;;;;;;;60.92;36.00;;;16.40;67.50;;;;;;4975102;28;20431;-44
2022/04/14 09:17:39;;;;;;;70.88;40.72;;;16.40;67.40;;;;;;4975777;28;20065;-46
2022/04/14 09:20:28;;;;;;;71.15;41.92;;;16.50;67.50;;;;;;4975742;28;20054;-43
2022/04/14 09:23:14;;;;;;;68.35;41.83;;;16.50;67.30;;;;;;4975491;28;20050;-43
2022/04/14 09:25:42;;;;;;;67.50;39.08;;;16.60;67.10;;;;;;4974409;28;20477;-46
2022/04/14 09:28:11;;;;;;;71.20;41.83;;;16.60;66.40;;;;;;4978270;28;20054;-43
2022/04/14 09:30:39;;;;;;;79.20;42.10;;;16.60;66.70;;;;;;4978840;28;20050;-43
2022/04/14 09:33:06;;;;;;;71.57;41.97;;;16.60;66.30;;;;;;4977048;28;20580;-43
2022/04/14 09:35:33;;;;;;;79.78;44.53;;;16.70;65.90;;;;;;4973028;28;20061;-43
2022/04/14 09:38:02;;;;;;;72.28;40.63;;;16.70;66.10;;;;;;4974529;28;20050;-43
2022/04/14 09:40:34;;;;;;;82.20;46.05;;;16.70;66.40;;;;;;4972089;28;20050;-43
2022/04/14 09:43:02;;;;;;;90.72;49.85;;;16.70;66.50;;;;;;4973570;28;20414;-43
2022/04/14 09:45:32;;;;;;;86.95;48.08;;;16.70;65.30;;;;;;4976338;28;20081;-43
2022/04/14 09:48:04;;;;;;;88.53;49.63;;;16.80;65.30;;;;;;4977338;28;20050;-43
2022/04/14 09:50:35;;;;;;;80.85;45.33;;;16.80;66.20;;;;;;4975950;28;20054;-47
2022/04/14 09:53:07;;;;;;;108.68;55.65;;;16.80;66.40;;;;;;4973840;28;20061;-43
2022/04/14 09:55:37;;;;;;;99.28;55.42;;;16.90;66.10;;;;;;4976329;28;20066;-43
2022/04/14 09:58:18;;;;;;;110.25;57.50;;;16.90;66.00;;;;;;4972468;28;20069;-43
2022/04/14 10:00:48;;;;;;;98.20;53.78;;;16.90;65.40;;;;;;4972699;28;20061;-43
2022/04/14 10:03:17;;;;;;;92.35;51.45;;;16.90;64.80;;;;;;4975339;28;20065;-43
2022/04/14 10:05:46;;;;;;;80.53;48.13;;;17.00;64.90;;;;;;4979910;28;20069;-45
2022/04/14 10:08:14;;;;;;;87.05;48.80;;;16.90;64.70;;;;;;4981657;28;20050;-43
2022/04/14 10:10:45;;;;;;;94.40;50.80;;;17.00;64.90;;;;;;4980860;28;20062;-45
2022/04/14 10:13:14;;;;;;;93.03;52.67;;;17.00;65.00;;;;;;4978728;28;20062;-44
2022/04/14 10:15:43;;;;;;;88.47;52.47;;;17.10;63.90;;;;;;4981278;28;21572;-43
2022/04/14 10:18:14;;;;;;;101.60;54.05;;;17.10;64.50;;;;;;4976207;28;20073;-43
2022/04/14 10:20:43;;;;;;;96.00;54.28;;;17.20;65.60;;;;;;4980350;28;20069;-43
2022/04/14 10:23:13;;;;;;;79.97;48.53;;;17.20;65.30;;;;;;4979933;28;20054;-43
2022/04/14 10:25:41;;;;;;;87.22;48.53;;;17.30;65.10;;;;;;4979851;28;20050;-45
2022/04/14 10:28:13;;;;;;;71.63;44.28;;;17.50;64.80;;;;;;4978141;28;20521;-43
2022/04/14 10:30:41;;;;;;;64.65;41.42;;;17.50;65.10;;;;;;4981664;28;20513;-43
2022/04/14 10:33:12;;;;;;;74.13;46.35;;;17.70;64.30;;;;;;4980162;28;20417;-43
2022/04/14 10:35:39;;;;;;;69.10;42.78;;;17.80;63.70;;;;;;4958157;28;20399;-43
2022/04/14 10:38:12;;;;;;;60.30;38.63;;;17.80;62.50;;;;;;4981168;28;20061;-43
2022/04/14 10:40:47;;;;;;;60.92;38.83;;;18.00;62.20;;;;;;4979251;28;20054;-44
2022/04/14 10:43:20;;;;;;;73.38;42.55;;;18.00;61.00;;;;;;4976751;28;20050;-47
2022/04/14 10:45:50;;;;;;;73.32;43.25;;;18.10;59.50;;;;;;4978089;28;20058;-43
2022/04/14 10:48:39;;;;;;;62.95;41.13;;;18.10;59.80;;;;;;4981003;28;20053;-43
2022/04/14 10:51:24;;;;;;;65.47;40.17;;;18.10;60.60;;;;;;4977384;28;20058;-43
2022/04/14 10:53:58;;;;;;;67.82;41.28;;;18.20;59.90;;;;;;4984676;28;20053;-43
2022/04/14 10:56:41;;;;;;;;;;;18.30;59.80;;;;;;4980803;28;20070;-43
2022/04/14 10:59:11;;;;;;;57.33;37.15;;;18.30;59.60;;;;;;4978464;28;19936;-43
2022/04/14 11:02:04;;;;;;;57.05;38.22;;;18.40;58.80;;;;;;4983823;28;20054;-43
2022/04/14 11:04:37;;;;;;;54.33;35.20;;;18.50;58.70;;;;;;4979668;28;20054;-43
2022/04/14 11:07:12;;;;;;;50.55;32.85;;;18.60;58.50;;;;;;4979124;28;20063;-44
2022/04/14 11:09:57;;;;;;;52.55;35.55;;;18.70;58.10;;;;;;4984031;28;20058;-43
2022/04/14 11:12:27;;;;;;;54.47;34.22;;;18.70;58.00;;;;;;4982562;28;20050;-46
2022/04/14 11:14:58;;;;;;;49.67;33.60;;;18.80;57.60;;;;;;4982777;28;20062;-46
2022/04/14 11:18:03;;;;;;;52.17;34.13;;;18.90;57.50;;;;;;4983605;28;20058;-45
2022/04/14 11:20:58;;;;;;;54.17;35.55;;;18.90;57.50;;;;;;4984281;28;20081;-43
2022/04/14 11:23:30;;;;;;;51.05;32.97;;;19.00;56.50;;;;;;4983635;28;20054;-43
2022/04/14 11:26:14;;;;;;;58.75;38.42;;;19.10;56.60;;;;;;4982192;28;20084;-43
2022/04/14 11:28:46;;;;;;;51.88;35.28;;;19.20;56.80;;;;;;4982322;28;20050;-44
2022/04/14 11:31:25;;;;;;;49.88;34.42;;;19.20;56.70;;;;;;4975470;28;20065;-43
2022/04/14 11:33:57;;;;;;;53.40;35.75;;;19.40;56.50;;;;;;4968735;28;20057;-45
2022/04/14 11:36:27;;;;;;;61.03;39.67;;;19.40;56.60;;;;;;4979543;28;20054;-47
2022/04/14 11:39:04;;;;;;;53.35;36.85;;;19.50;56.20;;;;;;4979705;28;20057;-47
2022/04/14 11:41:41;;;;;;;52.65;37.13;;;19.50;55.70;;;;;;4981397;28;20063;-44
2022/04/14 11:44:11;;;;;;;48.38;33.45;;;19.60;55.40;;;;;;4982759;28;20061;-48
2022/04/14 11:46:41;;;;;;;60.83;41.13;;;19.60;55.20;;;;;;4982506;28;20062;-43
2022/04/14 11:49:12;;;;;;;58.58;38.10;;;19.70;54.60;;;;;;4982709;28;20537;-45
2022/04/14 11:51:48;;;;;;;55.03;37.83;;;19.70;54.00;;;;;;4982252;28;20042;-46
2022/04/14 11:54:22;;;;;;;49.15;33.90;;;19.80;53.20;;;;;;4981523;28;20057;-44
2022/04/14 11:56:52;;;;;;;45.53;31.67;;;19.80;53.90;;;;;;4980957;28;20050;-43
2022/04/14 11:59:29;;;;;;;42.17;30.42;;;19.80;53.60;;;;;;4982320;28;20053;-43
2022/04/14 12:02:00;;;;;;;41.42;27.83;;;19.90;53.70;;;;;;4982564;28;20054;-43
2022/04/14 12:04:28;;;;;;;37.88;24.85;;;19.90;53.30;;;;;;4982102;28;20066;-43
2022/04/14 12:06:56;;;;;;;36.97;25.95;;;20.00;52.70;;;;;;4978517;28;20656;-43
2022/04/14 12:09:25;;;;;;;35.72;25.77;;;20.00;52.50;;;;;;4983160;28;20055;-43
2022/04/14 12:11:53;;;;;;;46.72;27.92;;;20.10;52.40;;;;;;4977246;28;20498;-43
2022/04/14 12:14:21;;;;;;;36.22;25.95;;;20.10;52.20;;;;;;4983169;28;20050;-43
2022/04/14 12:16:50;;;;;;;42.83;28.55;;;20.20;52.00;;;;;;4982735;28;20058;-43
2022/04/14 12:19:19;;;;;;;37.63;25.42;;;20.20;52.00;;;;;;4983094;28;20122;-43
2022/04/14 12:22:01;;;;;;;35.28;24.75;;;20.30;51.90;;;;;;4983230;28;20537;-43
2022/04/14 12:24:29;;;;;;;33.50;23.58;;;20.40;51.70;;;;;;4982602;28;20061;-43
2022/04/14 12:26:58;;;;;;;32.28;22.92;;;20.40;51.70;;;;;;4979814;28;20050;-44
2022/04/14 12:29:26;;;;;;;28.70;18.70;;;20.50;50.70;;;;;;4982297;28;20058;-44
2022/04/14 12:31:56;;;;;;;26.05;18.20;;;20.60;50.30;;;;;;4979581;28;20413;-43
2022/04/14 12:34:25;;;;;;;22.73;17.70;;;20.60;49.90;;;;;;4980155;28;20553;-43
2022/04/14 12:37:07;;;;;;;29.30;20.77;;;20.70;49.80;;;;;;4983126;28;20065;-43
2022/04/14 12:39:35;;;;;;;28.83;21.25;;;20.80;48.90;;;;;;4977687;28;20061;-43
2022/04/14 12:42:03;;;;;;;27.98;21.10;;;20.90;49.50;;;;;;4976927;28;20073;-43